createdAt,value
2022-12-18T00:04:08.186Z,18.43
2022-12-18T00:10:35.565Z,18.38
2022-12-18T00:17:02.265Z,18.45
2022-12-18T00:23:26.182Z,18.3
2022-12-18T00:29:54.117Z,18.26
2022-12-18T00:36:27.163Z,18.26
2022-12-18T00:42:59.247Z,18.12
2022-12-18T00:49:21.134Z,18.23
2022-12-18T00:55:52.116Z,18.11
2022-12-18T01:02:21.275Z,18.18
2022-12-18T01:08:49.244Z,18.13
2022-12-18T01:15:25.196Z,18.16
2022-12-18T01:21:52.170Z,18.15
2022-12-18T01:28:23.117Z,18.21
2022-12-18T01:35:03.200Z,18.18
2022-12-18T01:41:48.268Z,18.16
2022-12-18T01:48:28.411Z,18.26
2022-12-18T01:55:07.393Z,18.25
2022-12-18T02:01:50.344Z,18.3
2022-12-18T02:08:40.254Z,18.15
2022-12-18T02:15:48.814Z,18.18
2022-12-18T02:22:50.994Z,18.2
2022-12-18T02:29:56.124Z,18.18
2022-12-18T02:36:39.336Z,18.12
2022-12-18T02:43:14.202Z,18.1
2022-12-18T02:50:00.529Z,18.09
2022-12-18T02:57:14.152Z,18.02
2022-12-18T03:04:30.238Z,17.96
2022-12-18T03:11:43.207Z,18.05
2022-12-18T03:18:43.438Z,18.01
2022-12-18T03:25:38.641Z,18.1
2022-12-18T03:32:30.616Z,18.19
2022-12-18T03:39:53.738Z,17.76
2022-12-18T03:47:57.617Z,17.42
2022-12-18T03:56:08.965Z,17.39
2022-12-18T04:04:00.511Z,17.25
2022-12-18T04:11:33.381Z,17.41
2022-12-18T04:19:22.087Z,17.37
2022-12-18T04:26:58.708Z,17.46
2022-12-18T04:34:28.940Z,17.33
2022-12-18T04:42:02.217Z,17.15
2022-12-18T04:49:28.528Z,17.29
2022-12-18T04:56:50.280Z,17.03
2022-12-18T05:04:12.849Z,17.04
2022-12-18T05:11:44.484Z,17.04
2022-12-18T05:18:48.632Z,18.18
2022-12-18T05:25:10.350Z,18.76
2022-12-18T05:31:48.393Z,19.35
2022-12-18T05:38:11.791Z,19.7
2022-12-18T05:44:47.462Z,19.74
2022-12-18T05:51:19.773Z,19.96
2022-12-18T05:57:44.300Z,20.44
2022-12-18T06:04:20.900Z,20.63
2022-12-18T06:10:47.917Z,21.04
2022-12-18T06:17:15.320Z,20.86
2022-12-18T06:23:51.614Z,20.63
2022-12-18T06:30:15.395Z,20.65
2022-12-18T06:36:44.839Z,20.65
2022-12-18T06:43:14.407Z,20.66
2022-12-18T06:49:37.444Z,20.84
2022-12-18T06:56:10.479Z,20.89
2022-12-18T07:02:41.557Z,20.79
2022-12-18T07:09:14.493Z,20.71
2022-12-18T07:15:41.216Z,20.82
2022-12-18T07:22:09.428Z,20.82
2022-12-18T07:28:42.133Z,20.5
2022-12-18T07:35:18.375Z,20.34
2022-12-18T07:41:49.614Z,20.5
2022-12-18T07:48:15.826Z,20.4
2022-12-18T07:54:46.479Z,20.44
2022-12-18T08:01:09.460Z,20.49
2022-12-18T08:07:35.322Z,20.47
2022-12-18T08:14:11.397Z,20.1
2022-12-18T08:20:34.484Z,20.03
2022-12-18T08:33:51.738Z,20.79
2022-12-18T08:40:26.828Z,20.79
2022-12-18T08:46:57.694Z,20.68
2022-12-18T08:53:32.760Z,20.69
2022-12-18T09:00:14.820Z,20.2
2022-12-18T09:06:52.444Z,20.2
2022-12-18T09:13:17.310Z,19.97
2022-12-18T09:19:49.034Z,20.19
2022-12-18T09:26:14.492Z,20.28
2022-12-18T09:32:44.687Z,20.1
2022-12-18T09:39:24.265Z,19.94
2022-12-18T09:46:12.529Z,19.83
2022-12-18T09:53:15.410Z,19.93
2022-12-18T10:00:04.364Z,19.75
2022-12-18T10:07:08.880Z,19.75
2022-12-18T10:14:23.794Z,20.1
2022-12-18T10:21:34.172Z,20.05
2022-12-18T10:28:33.608Z,19.94
2022-12-18T10:35:11.253Z,19.82
2022-12-18T10:42:03.944Z,19.86
2022-12-18T10:49:01.639Z,19.83
2022-12-18T10:55:58.145Z,19.81
2022-12-18T11:02:54.400Z,19.72
2022-12-18T11:09:48.694Z,20.04
2022-12-18T11:23:52.372Z,19.9
2022-12-18T11:30:41.796Z,19.88
2022-12-18T11:37:36.858Z,19.7
2022-12-18T11:44:39.670Z,19.84
2022-12-18T11:51:52.431Z,19.99
2022-12-18T11:58:54.778Z,19.97
2022-12-18T12:05:45.850Z,19.85
2022-12-18T12:12:48.526Z,19.93
2022-12-18T12:19:32.857Z,19.79
2022-12-18T12:26:48.383Z,19.74
2022-12-18T12:33:29.468Z,19.71
2022-12-18T12:47:50.179Z,19.89
2022-12-18T12:54:53.566Z,20.22
2022-12-18T13:01:39.868Z,19.75
2022-12-18T13:08:47.392Z,19.96
2022-12-18T13:15:43.504Z,19.87
2022-12-18T13:22:40.273Z,19.79
2022-12-18T13:29:22.510Z,19.86
2022-12-18T13:36:25.516Z,19.91
2022-12-18T13:43:20.426Z,20.04
2022-12-18T13:50:12.676Z,20.24
2022-12-18T13:57:11.820Z,20.08
2022-12-18T14:04:13.438Z,19.83
2022-12-18T14:10:51.023Z,19.88
2022-12-18T14:17:30.443Z,19.85
2022-12-18T14:24:17.602Z,19.76
2022-12-18T14:31:07.742Z,19.84
2022-12-18T14:37:56.542Z,19.91
2022-12-18T14:44:39.209Z,19.98
2022-12-18T14:51:37.530Z,19.98
2022-12-18T14:58:30.447Z,20.11
2022-12-18T15:05:11.350Z,20.01
2022-12-18T15:12:12.496Z,19.88
2022-12-18T15:19:28.871Z,19.46
2022-12-18T15:27:03.511Z,19.29
2022-12-18T15:34:37.012Z,19.49
2022-12-18T15:42:13.214Z,19.49
2022-12-18T15:49:51.849Z,19.17
2022-12-18T15:57:31.910Z,19.26
2022-12-18T16:05:14.468Z,19.14
2022-12-18T16:12:28.340Z,18.9
2022-12-18T16:19:54.898Z,18.57
2022-12-18T16:27:29.017Z,18.45
2022-12-18T16:34:56.735Z,18.54
2022-12-18T16:42:41.234Z,18.46
2022-12-18T16:49:58.908Z,18.39
2022-12-18T16:57:05.641Z,18.58
2022-12-18T17:04:21.808Z,18.64
2022-12-18T17:11:37.215Z,18.71
2022-12-18T17:18:57.301Z,18.78
2022-12-18T17:26:22.692Z,18.7
2022-12-18T17:33:48.017Z,18.57
2022-12-18T17:41:13.377Z,18.59
2022-12-18T17:48:46.273Z,18.69
2022-12-18T17:56:07.548Z,18.77
2022-12-18T18:03:19.323Z,18.45
2022-12-18T18:10:03.683Z,18.69
2022-12-18T18:17:17.178Z,18.56
2022-12-18T18:24:14.604Z,18.59
2022-12-18T18:31:24.102Z,18.64
2022-12-18T18:38:48.336Z,18.58
2022-12-18T18:46:00.875Z,18.67
2022-12-18T18:53:23.830Z,18.48
2022-12-18T19:00:15.914Z,18.57
2022-12-18T19:07:10.536Z,18.79
2022-12-18T19:14:07.373Z,18.8
2022-12-18T19:21:06.613Z,18.76
2022-12-18T19:27:50.061Z,18.89
2022-12-18T19:34:39.394Z,18.89
2022-12-18T19:41:45.349Z,18.7
2022-12-18T19:48:41.432Z,18.72
2022-12-18T19:55:40.067Z,18.55
2022-12-18T20:02:36.205Z,18.69
2022-12-18T20:09:40.100Z,18.77
2022-12-18T20:16:33.724Z,18.75
2022-12-18T20:23:38.430Z,18.78
2022-12-18T20:30:59.295Z,18.6
2022-12-18T20:38:24.922Z,18.43
2022-12-18T20:45:58.942Z,18.46
2022-12-18T20:53:29.692Z,18.42
2022-12-18T21:00:41.467Z,18.41
2022-12-18T21:08:09.213Z,18.33
2022-12-18T21:15:53.732Z,18.34
2022-12-18T21:23:22.752Z,18.23
2022-12-18T21:30:58.408Z,18.29
2022-12-18T21:38:26.659Z,18.22
2022-12-18T21:45:51.856Z,18.2
2022-12-18T21:53:20.011Z,18.04
2022-12-18T22:00:50.653Z,18.01
2022-12-18T22:08:24.956Z,17.99
2022-12-18T22:15:54.720Z,18.01
2022-12-18T22:23:42.784Z,17.78
2022-12-18T22:31:17.069Z,17.93
2022-12-18T22:38:56.256Z,17.86
2022-12-18T22:46:25.143Z,17.79
2022-12-18T22:54:02.805Z,17.88
2022-12-18T23:01:51.247Z,17.81
2022-12-18T23:09:16.492Z,17.8
2022-12-18T23:17:00.374Z,17.7
2022-12-18T23:24:17.293Z,17.66
2022-12-18T23:31:55.386Z,17.67
2022-12-18T23:39:29.151Z,17.77
2022-12-18T23:47:13.564Z,17.69
2022-12-18T23:54:47.150Z,17.59
